X  CloseMetar Aviation Weather Data     LEBL Barcelona International

Temperatura

23°C Temperatura

12°C Punt de rosada

50% Humitat



Vent

29 KM/H

18 MPH

 8 M/S

16 KTS



250°
WSW
Condicions actuals

Partly Cloudy Partly Cloudy
PressiĆ³ 1007.92 (hPa) - 29.76 (in)
Visibilitat 6.2 (mi) - 10 (km)
Aeroport
Airport-code LEBL

localitat Barcelona International 25 (km)

Metar:
LEBL 201330Z 25016KT 9999 FEW015 23/12 Q1008 NOSIG

Hora : 20-10-2019 15:30